createdAt,value
2023-03-02T00:01:41.000Z,29.25
2023-03-02T00:04:13.976Z,29.98
2023-03-02T00:06:41.580Z,26.00
2023-03-02T00:09:09.515Z,29.33
2023-03-02T00:11:39.219Z,30.20
2023-03-02T00:14:06.958Z,31.17
2023-03-02T00:16:34.947Z,32.30
2023-03-02T00:19:02.687Z,31.52
2023-03-02T00:21:31.746Z,29.73
2023-03-02T00:23:59.251Z,29.25
2023-03-02T00:26:26.969Z,29.95
2023-03-02T00:28:55.803Z,29.55
2023-03-02T00:31:23.493Z,31.40
2023-03-02T00:33:51.150Z,31.15
2023-03-02T00:36:20.607Z,32.17
2023-03-02T00:38:48.355Z,33.03
2023-03-02T00:41:17.321Z,32.75
2023-03-02T00:43:45.088Z,30.30
2023-03-02T00:46:15.752Z,31.90
2023-03-02T00:48:43.627Z,29.98
2023-03-02T00:51:11.703Z,29.30
2023-03-02T00:53:39.890Z,30.77
2023-03-02T00:56:08.604Z,26.98
2023-03-02T00:58:36.149Z,31.45
2023-03-02T01:01:07.831Z,29.73
2023-03-02T01:03:37.088Z,32.75
2023-03-02T01:06:06.415Z,34.28
2023-03-02T01:08:33.974Z,31.45
2023-03-02T01:11:02.199Z,29.63
2023-03-02T01:13:29.994Z,30.25
2023-03-02T01:16:04.348Z,30.70
2023-03-02T01:18:32.955Z,33.83
2023-03-02T01:21:06.285Z,29.90
2023-03-02T01:23:34.102Z,31.02
2023-03-02T01:26:01.716Z,31.00
2023-03-02T01:28:29.247Z,34.58
2023-03-02T01:30:56.730Z,28.08
2023-03-02T01:33:24.301Z,30.92
2023-03-02T01:35:51.920Z,33.28
2023-03-02T01:38:20.890Z,28.63
2023-03-02T01:40:48.447Z,31.23
2023-03-02T01:43:17.388Z,27.83
2023-03-02T01:45:49.036Z,31.48
2023-03-02T01:48:19.435Z,29.05
2023-03-02T01:50:47.114Z,30.58
2023-03-02T01:53:16.849Z,29.90
2023-03-02T01:55:46.810Z,32.85
2023-03-02T01:58:16.676Z,27.52
2023-03-02T02:00:45.396Z,29.35
2023-03-02T02:03:20.813Z,29.83
2023-03-02T02:05:59.996Z,31.67
2023-03-02T02:08:27.935Z,31.05
2023-03-02T02:10:57.629Z,29.23
2023-03-02T02:13:25.156Z,30.02
2023-03-02T02:15:52.839Z,27.35
2023-03-02T02:18:20.364Z,29.58
2023-03-02T02:20:49.926Z,32.50
2023-03-02T02:23:27.437Z,31.90
2023-03-02T02:26:12.304Z,28.75
2023-03-02T02:28:44.584Z,28.60
2023-03-02T02:31:17.125Z,31.52
2023-03-02T02:33:47.550Z,29.85
2023-03-02T02:36:19.499Z,28.75
2023-03-02T02:38:49.376Z,23.98
2023-03-02T02:41:23.548Z,25.83
2023-03-02T02:43:51.546Z,28.08
2023-03-02T02:46:19.302Z,27.42
2023-03-02T02:48:46.864Z,29.65
2023-03-02T02:51:19.578Z,30.67
2023-03-02T02:53:50.955Z,29.00
2023-03-02T02:56:20.329Z,26.42
2023-03-02T02:58:50.725Z,33.75
2023-03-02T03:01:25.363Z,31.10
2023-03-02T03:03:54.971Z,30.25
2023-03-02T03:06:26.688Z,27.13
2023-03-02T03:09:01.891Z,26.40
2023-03-02T03:11:32.601Z,27.45
2023-03-02T03:14:05.716Z,31.42
2023-03-02T03:16:34.795Z,29.77
2023-03-02T03:19:07.865Z,28.50
2023-03-02T03:21:35.818Z,31.00
2023-03-02T03:24:03.446Z,28.45
2023-03-02T03:26:32.760Z,25.73
2023-03-02T03:29:00.672Z,27.40
2023-03-02T03:31:29.467Z,31.55
2023-03-02T03:34:00.467Z,32.35
2023-03-02T03:36:29.079Z,25.80
2023-03-02T03:38:57.139Z,30.15
2023-03-02T03:41:24.826Z,29.13
2023-03-02T03:43:54.069Z,29.92
2023-03-02T03:46:21.672Z,32.40
2023-03-02T03:48:49.266Z,33.13
2023-03-02T03:51:17.621Z,33.45
2023-03-02T03:53:45.137Z,34.65
2023-03-02T03:56:13.242Z,29.92
2023-03-02T03:58:40.959Z,31.00
2023-03-02T04:01:09.915Z,30.30
2023-03-02T04:03:37.399Z,32.05
2023-03-02T04:06:06.385Z,30.05
2023-03-02T04:08:33.958Z,28.30
2023-03-02T04:11:01.468Z,30.75
2023-03-02T04:13:29.073Z,30.10
2023-03-02T04:15:56.586Z,31.73
2023-03-02T04:18:25.418Z,26.05
2023-03-02T04:20:52.936Z,33.67
2023-03-02T04:23:20.448Z,28.48
2023-03-02T04:25:47.937Z,27.00
2023-03-02T04:28:17.608Z,31.40
2023-03-02T04:30:45.369Z,31.58
2023-03-02T04:33:12.897Z,28.80
2023-03-02T04:35:41.848Z,34.33
2023-03-02T04:38:09.362Z,29.48
2023-03-02T04:40:36.916Z,26.52
2023-03-02T04:43:04.470Z,31.10
2023-03-02T04:45:32.069Z,33.85
2023-03-02T04:47:59.642Z,34.97
2023-03-02T04:50:27.322Z,27.73
2023-03-02T04:52:56.825Z,29.02
2023-03-02T04:55:27.225Z,26.05
2023-03-02T04:57:54.759Z,27.85
2023-03-02T05:00:23.189Z,27.95
2023-03-02T05:02:51.002Z,27.55
2023-03-02T05:05:20.945Z,28.15
2023-03-02T05:07:48.740Z,29.52
2023-03-02T05:10:19.270Z,28.13
2023-03-02T05:12:57.958Z,29.30
2023-03-02T05:15:28.001Z,26.27
2023-03-02T05:17:56.160Z,26.90
2023-03-02T05:20:27.522Z,28.27
2023-03-02T05:22:56.533Z,27.08
2023-03-02T05:25:26.303Z,27.15
2023-03-02T05:27:54.089Z,28.20
2023-03-02T05:30:23.119Z,24.40
2023-03-02T05:32:51.186Z,25.98
2023-03-02T05:35:19.289Z,27.77
2023-03-02T05:37:47.053Z,27.02
2023-03-02T05:40:17.113Z,28.65
2023-03-02T05:42:46.116Z,29.20
2023-03-02T05:45:19.626Z,29.33
2023-03-02T05:47:47.910Z,29.38
2023-03-02T05:50:15.585Z,26.33
2023-03-02T05:52:45.371Z,25.20
2023-03-02T05:55:13.918Z,28.10
2023-03-02T05:57:42.103Z,29.38
2023-03-02T06:00:13.903Z,31.98
2023-03-02T06:02:42.135Z,28.35
2023-03-02T06:05:12.504Z,27.33
2023-03-02T06:07:40.031Z,31.20
2023-03-02T06:10:09.119Z,30.35
2023-03-02T06:12:36.667Z,27.38
2023-03-02T06:15:05.264Z,32.20
2023-03-02T06:17:34.451Z,28.35
2023-03-02T06:20:02.051Z,24.80
2023-03-02T06:22:29.545Z,25.65
2023-03-02T06:24:57.002Z,31.15
2023-03-02T06:27:24.490Z,23.38
2023-03-02T06:29:52.307Z,27.27
2023-03-02T06:32:19.937Z,24.83
2023-03-02T06:34:49.990Z,25.88
2023-03-02T06:37:17.576Z,26.83
2023-03-02T06:39:45.120Z,27.50
2023-03-02T06:42:12.662Z,26.02
2023-03-02T06:44:40.421Z,29.45
2023-03-02T06:47:07.964Z,29.02
2023-03-02T06:49:35.787Z,27.50
2023-03-02T06:52:07.091Z,26.65
2023-03-02T06:54:34.725Z,28.27
2023-03-02T06:57:02.256Z,28.50
2023-03-02T06:59:29.873Z,27.58
2023-03-02T07:01:57.372Z,27.25
2023-03-02T07:04:25.086Z,36.20
2023-03-02T07:06:52.773Z,26.08
2023-03-02T07:09:22.097Z,27.05
2023-03-02T07:11:50.260Z,27.27
2023-03-02T07:14:17.828Z,26.02
2023-03-02T07:16:45.428Z,24.17
2023-03-02T07:19:14.051Z,26.52
2023-03-02T07:21:41.998Z,22.90
2023-03-02T07:24:09.728Z,24.83
2023-03-02T07:26:38.703Z,23.75
2023-03-02T07:29:06.199Z,24.77
2023-03-02T07:31:34.003Z,25.88
2023-03-02T07:34:01.803Z,27.63
2023-03-02T07:36:29.403Z,23.52
2023-03-02T07:38:57.524Z,24.20
2023-03-02T07:41:25.125Z,24.77
2023-03-02T07:43:54.028Z,23.95
2023-03-02T07:46:21.599Z,26.88
2023-03-02T07:48:49.225Z,21.05
2023-03-02T07:51:16.807Z,24.70
2023-03-02T07:53:44.317Z,21.83
2023-03-02T07:56:12.977Z,23.33
2023-03-02T07:58:40.490Z,24.42
2023-03-02T08:01:09.926Z,24.95
2023-03-02T08:03:37.974Z,25.40
2023-03-02T08:06:07.187Z,22.08
2023-03-02T08:08:34.738Z,21.90
2023-03-02T08:11:06.066Z,23.80
2023-03-02T08:13:33.620Z,21.60
2023-03-02T08:16:02.434Z,20.27
2023-03-02T08:18:32.105Z,22.05
2023-03-02T08:21:00.175Z,20.05
2023-03-02T08:23:27.965Z,21.95
2023-03-02T08:25:56.289Z,19.33
2023-03-02T08:28:24.378Z,20.13
2023-03-02T08:30:58.700Z,19.25
2023-03-02T08:33:27.539Z,25.00
2023-03-02T08:35:57.776Z,23.02
2023-03-02T08:38:25.475Z,22.95
2023-03-02T08:40:53.861Z,21.75
2023-03-02T08:43:23.298Z,20.83
2023-03-02T08:45:53.452Z,22.33
2023-03-02T08:48:21.139Z,22.67
2023-03-02T08:50:57.730Z,17.88
2023-03-02T08:53:25.855Z,21.95
2023-03-02T08:55:53.582Z,20.02
2023-03-02T08:58:21.190Z,17.83
2023-03-02T09:00:49.212Z,20.48
2023-03-02T09:03:16.841Z,14.73
2023-03-02T09:05:45.067Z,16.77
2023-03-02T09:08:14.261Z,16.48
2023-03-02T09:10:41.826Z,16.83
2023-03-02T09:13:09.403Z,18.67
2023-03-02T09:15:37.982Z,17.40
2023-03-02T09:18:05.682Z,17.45
2023-03-02T09:20:33.991Z,16.58
2023-03-02T09:23:01.552Z,13.30
2023-03-02T09:25:30.656Z,13.32
2023-03-02T09:27:58.176Z,14.60
2023-03-02T09:30:25.770Z,13.25
2023-03-02T09:32:53.358Z,13.85
2023-03-02T09:35:20.987Z,14.13
2023-03-02T09:37:48.520Z,19.45
2023-03-02T09:40:20.539Z,15.50
2023-03-02T09:43:17.754Z,15.60
2023-03-02T09:45:57.735Z,12.38
2023-03-02T09:48:41.536Z,15.10
2023-03-02T09:51:21.869Z,13.40
2023-03-02T09:53:59.268Z,16.38
2023-03-02T09:56:27.609Z,17.52
2023-03-02T09:59:02.408Z,11.65
2023-03-02T10:01:37.097Z,11.98
2023-03-02T10:04:14.349Z,13.02
2023-03-02T10:06:41.972Z,16.83
2023-03-02T10:09:11.002Z,13.70
2023-03-02T10:11:51.447Z,11.48
2023-03-02T10:14:25.238Z,12.43
2023-03-02T10:17:00.165Z,14.50
2023-03-02T10:19:32.998Z,13.95
2023-03-02T10:22:10.714Z,11.93
2023-03-02T10:24:44.574Z,12.77
2023-03-02T10:27:19.048Z,12.13
2023-03-02T10:29:59.136Z,17.52
2023-03-02T10:32:31.392Z,13.82
2023-03-02T10:35:02.281Z,15.27
2023-03-02T10:37:31.524Z,16.70
2023-03-02T10:39:59.118Z,13.93
2023-03-02T10:42:30.819Z,15.88
2023-03-02T10:45:09.095Z,15.90
2023-03-02T10:47:36.628Z,15.18
2023-03-02T10:50:04.281Z,14.10
2023-03-02T10:52:31.950Z,16.15
2023-03-02T10:55:04.052Z,13.88
2023-03-02T10:57:37.807Z,14.02
2023-03-02T11:00:17.850Z,11.80
2023-03-02T11:02:53.354Z,13.70
2023-03-02T11:05:27.115Z,12.48
2023-03-02T11:07:56.071Z,18.13
2023-03-02T11:10:26.210Z,13.82
2023-03-02T11:12:54.521Z,11.75
2023-03-02T11:15:41.235Z,15.57
2023-03-02T11:18:18.020Z,16.23
2023-03-02T11:20:50.310Z,15.07
2023-03-02T11:25:55.466Z,11.40
2023-03-02T11:28:33.726Z,12.60
2023-03-02T11:31:06.539Z,12.32
2023-03-02T11:33:38.372Z,12.90
2023-03-02T11:36:13.376Z,11.45
2023-03-02T11:38:48.558Z,13.02
2023-03-02T11:41:27.395Z,11.30
2023-03-02T11:43:55.461Z,14.60
2023-03-02T11:46:27.917Z,10.73
2023-03-02T11:48:58.381Z,9.57
2023-03-02T11:51:29.392Z,12.98
2023-03-02T11:54:01.254Z,14.13
2023-03-02T11:56:32.308Z,9.85
2023-03-02T11:59:04.701Z,13.32
2023-03-02T12:01:37.978Z,9.88
2023-03-02T12:04:09.869Z,13.93
2023-03-02T12:06:40.329Z,9.20
2023-03-02T12:09:11.797Z,11.45
2023-03-02T12:11:41.648Z,10.45
2023-03-02T12:14:28.173Z,13.18
2023-03-02T12:17:08.508Z,11.52
2023-03-02T12:19:45.177Z,11.13
2023-03-02T12:22:14.782Z,11.45
2023-03-02T12:24:45.099Z,11.23
2023-03-02T12:27:27.014Z,11.68
2023-03-02T12:30:09.370Z,12.65
2023-03-02T12:32:38.584Z,12.88
2023-03-02T12:35:14.594Z,12.65
2023-03-02T12:37:47.480Z,13.88
2023-03-02T12:40:54.843Z,13.65
2023-03-02T12:43:30.789Z,16.20
2023-03-02T12:46:21.199Z,12.25
2023-03-02T12:48:59.828Z,10.88
2023-03-02T12:51:29.679Z,12.40
2023-03-02T12:54:04.806Z,13.45
2023-03-02T12:56:32.814Z,14.90
2023-03-02T12:59:00.409Z,13.35
2023-03-02T13:01:29.921Z,13.95
2023-03-02T13:03:59.803Z,13.35
2023-03-02T13:06:31.884Z,10.65
2023-03-02T13:09:00.861Z,15.30
2023-03-02T13:11:32.010Z,11.23
2023-03-02T13:14:00.336Z,14.18
2023-03-02T13:16:29.812Z,16.13
2023-03-02T13:19:01.504Z,10.65
2023-03-02T13:21:33.088Z,18.25
2023-03-02T13:24:01.121Z,19.37
2023-03-02T13:26:31.072Z,13.93
2023-03-02T13:29:03.519Z,13.45
2023-03-02T13:31:31.855Z,11.48
2023-03-02T13:34:01.041Z,10.18
2023-03-02T13:36:30.476Z,11.25
2023-03-02T13:39:00.343Z,13.40
2023-03-02T13:41:29.876Z,20.45
2023-03-02T13:43:58.207Z,12.65
2023-03-02T13:46:28.833Z,9.10
2023-03-02T13:49:09.045Z,13.85
2023-03-02T13:51:41.903Z,13.20
2023-03-02T13:54:19.882Z,12.43
2023-03-02T13:56:47.522Z,12.75
2023-03-02T13:59:18.895Z,13.57
2023-03-02T14:01:46.697Z,13.50
2023-03-02T14:04:16.527Z,12.77
2023-03-02T14:06:45.660Z,14.55
2023-03-02T14:09:13.186Z,12.13
2023-03-02T14:11:45.188Z,9.95
2023-03-02T14:14:17.090Z,17.83
2023-03-02T14:16:44.603Z,14.32
2023-03-02T14:19:13.673Z,17.50
2023-03-02T14:21:43.200Z,15.57
2023-03-02T14:24:12.671Z,18.90
2023-03-02T14:26:43.524Z,16.55
2023-03-02T14:29:22.210Z,12.95
2023-03-02T14:31:50.148Z,16.08
2023-03-02T14:34:18.907Z,14.93
2023-03-02T14:36:49.012Z,11.32
2023-03-02T14:39:23.376Z,13.93
2023-03-02T14:41:54.078Z,14.77
2023-03-02T14:44:22.506Z,10.68
2023-03-02T14:46:50.496Z,16.58
2023-03-02T14:49:18.016Z,13.93
2023-03-02T14:51:55.154Z,11.57
2023-03-02T14:54:24.072Z,14.35
2023-03-02T14:56:51.700Z,14.73
2023-03-02T14:59:19.354Z,16.50
2023-03-02T15:01:46.935Z,12.95
2023-03-02T15:04:14.498Z,13.73
2023-03-02T15:06:44.305Z,14.15
2023-03-02T15:09:12.502Z,16.67
2023-03-02T15:11:41.322Z,12.43
2023-03-02T15:14:08.974Z,14.23
2023-03-02T15:16:36.690Z,12.00
2023-03-02T15:19:04.241Z,13.02
2023-03-02T15:21:32.168Z,12.70
2023-03-02T15:23:59.860Z,14.60
2023-03-02T15:26:27.439Z,12.18
2023-03-02T15:28:56.270Z,13.52
2023-03-02T15:31:23.766Z,12.35
2023-03-02T15:33:52.054Z,12.65
2023-03-02T15:36:19.694Z,10.60
2023-03-02T15:38:49.950Z,17.83
2023-03-02T15:41:17.627Z,16.05
2023-03-02T15:43:45.974Z,13.80
2023-03-02T15:46:14.846Z,15.15
2023-03-02T15:48:42.353Z,13.93
2023-03-02T15:51:11.147Z,12.15
2023-03-02T15:53:40.021Z,14.45
2023-03-02T15:56:10.038Z,12.02
2023-03-02T15:58:37.602Z,11.45
2023-03-02T16:01:08.195Z,11.05
2023-03-02T16:03:37.150Z,12.75
2023-03-02T16:06:05.291Z,12.25
2023-03-02T16:08:32.791Z,13.82
2023-03-02T16:11:02.348Z,15.60
2023-03-02T16:13:30.881Z,12.38
2023-03-02T16:16:01.629Z,12.10
2023-03-02T16:18:29.428Z,16.88
2023-03-02T16:20:58.527Z,12.50
2023-03-02T16:23:26.364Z,14.48
2023-03-02T16:25:53.899Z,15.82
2023-03-02T16:28:21.572Z,14.02
2023-03-02T16:30:49.322Z,16.45
2023-03-02T16:33:18.877Z,19.33
2023-03-02T16:35:46.869Z,16.02
2023-03-02T16:38:16.651Z,13.13
2023-03-02T16:40:44.143Z,14.50
2023-03-02T16:43:11.632Z,15.77
2023-03-02T16:45:39.231Z,16.02
2023-03-02T16:48:07.614Z,17.45
2023-03-02T16:50:35.132Z,17.70
2023-03-02T16:53:03.011Z,14.27
2023-03-02T16:55:31.984Z,14.23
2023-03-02T16:57:59.520Z,20.30
2023-03-02T17:00:27.822Z,15.95
2023-03-02T17:02:55.380Z,15.50
2023-03-02T17:05:23.204Z,19.45
2023-03-02T17:07:50.819Z,16.65
2023-03-02T17:10:22.676Z,18.10
2023-03-02T17:12:51.548Z,22.92
2023-03-02T17:15:19.213Z,21.73
2023-03-02T17:17:46.786Z,18.05
2023-03-02T17:20:14.995Z,21.58
2023-03-02T17:22:42.503Z,21.48
2023-03-02T17:25:11.763Z,19.52
2023-03-02T17:27:39.429Z,18.38
2023-03-02T17:30:12.490Z,23.08
2023-03-02T17:32:40.616Z,20.77
2023-03-02T17:35:11.626Z,27.67
2023-03-02T17:37:40.028Z,19.27
2023-03-02T17:40:09.248Z,22.60
2023-03-02T17:42:39.046Z,22.10
2023-03-02T17:45:09.362Z,25.50
2023-03-02T17:47:36.937Z,21.98
2023-03-02T17:50:05.379Z,20.65
2023-03-02T17:52:32.935Z,20.70
2023-03-02T17:55:00.460Z,23.15
2023-03-02T17:57:28.047Z,16.33
2023-03-02T17:59:57.415Z,18.85
2023-03-02T18:02:26.251Z,20.27
2023-03-02T18:04:53.891Z,23.02
2023-03-02T18:07:21.406Z,22.48
2023-03-02T18:09:48.936Z,31.90
2023-03-02T18:12:16.532Z,28.05
2023-03-02T18:14:44.300Z,29.52
2023-03-02T18:17:12.441Z,21.50
2023-03-02T18:19:41.534Z,22.08
2023-03-02T18:22:09.096Z,21.13
2023-03-02T18:24:36.712Z,25.13
2023-03-02T18:27:04.761Z,23.20
2023-03-02T18:29:32.615Z,25.20
2023-03-02T18:32:00.263Z,30.90
2023-03-02T18:34:27.829Z,26.50
2023-03-02T18:36:56.847Z,22.35
2023-03-02T18:39:24.351Z,23.25
2023-03-02T18:41:51.932Z,22.25
2023-03-02T18:44:19.919Z,20.92
2023-03-02T18:46:47.606Z,20.52
2023-03-02T18:49:15.248Z,32.65
2023-03-02T18:51:43.306Z,21.88
2023-03-02T18:54:12.398Z,20.88
2023-03-02T18:56:40.712Z,23.05
2023-03-02T18:59:09.570Z,23.45
2023-03-02T19:01:37.628Z,24.23
2023-03-02T19:04:05.317Z,24.77
2023-03-02T19:06:43.096Z,24.30
2023-03-02T19:09:12.304Z,25.15
2023-03-02T19:11:39.842Z,26.98
2023-03-02T19:14:07.443Z,25.20
2023-03-02T19:16:36.103Z,25.75
2023-03-02T19:19:03.767Z,31.73
2023-03-02T19:21:31.345Z,29.67
2023-03-02T19:23:59.030Z,29.58
2023-03-02T19:26:27.931Z,29.48
2023-03-02T19:28:55.799Z,30.15
2023-03-02T19:31:24.079Z,29.27
2023-03-02T19:33:51.702Z,28.02
2023-03-02T19:36:19.261Z,33.13
2023-03-02T19:38:46.984Z,30.52
2023-03-02T19:41:17.055Z,28.38
2023-03-02T19:43:46.582Z,32.80
2023-03-02T19:46:15.379Z,30.02
2023-03-02T19:48:43.577Z,31.65
2023-03-02T19:51:12.010Z,30.33
2023-03-02T19:53:40.222Z,28.50
2023-03-02T19:56:12.743Z,33.33
2023-03-02T19:58:46.973Z,30.85
2023-03-02T20:01:21.557Z,30.65
2023-03-02T20:03:51.575Z,31.52
2023-03-02T20:06:19.402Z,33.67
2023-03-02T20:08:48.084Z,31.15
2023-03-02T20:11:16.173Z,33.00
2023-03-02T20:13:43.881Z,27.98
2023-03-02T20:16:13.347Z,28.50
2023-03-02T20:18:42.475Z,32.63
2023-03-02T20:21:10.196Z,34.30
2023-03-02T20:23:38.178Z,31.92
2023-03-02T20:26:06.341Z,31.73
2023-03-02T20:28:34.499Z,27.95
2023-03-02T20:31:08.851Z,32.95
2023-03-02T20:33:39.346Z,32.97
2023-03-02T20:36:09.196Z,31.20
2023-03-02T20:38:43.660Z,30.17
2023-03-02T20:41:12.376Z,29.65
2023-03-02T20:43:40.266Z,35.80
2023-03-02T20:46:09.972Z,27.40
2023-03-02T20:48:39.953Z,33.28
2023-03-02T20:51:08.842Z,33.05
2023-03-02T20:53:36.453Z,30.50
2023-03-02T20:56:04.620Z,34.47
2023-03-02T20:58:32.236Z,35.67
2023-03-02T21:01:00.559Z,30.73
2023-03-02T21:03:28.223Z,29.70
2023-03-02T21:05:56.911Z,37.15
2023-03-02T21:08:25.891Z,34.35
2023-03-02T21:10:53.413Z,36.22
2023-03-02T21:13:22.456Z,33.65
2023-03-02T21:15:50.467Z,35.15
2023-03-02T21:18:18.207Z,36.78
2023-03-02T21:20:45.745Z,32.15
2023-03-02T21:23:13.364Z,33.83
2023-03-02T21:25:43.895Z,35.70
2023-03-02T21:28:11.878Z,35.55
2023-03-02T21:30:39.440Z,36.15
2023-03-02T21:33:07.231Z,37.50
2023-03-02T21:35:34.794Z,37.78
2023-03-02T21:38:05.014Z,38.85
2023-03-02T21:40:34.909Z,35.78
2023-03-02T21:43:05.364Z,37.47
2023-03-02T21:45:33.637Z,42.20
2023-03-02T21:48:01.141Z,41.05
2023-03-02T21:50:31.993Z,41.72
2023-03-02T21:52:59.527Z,36.00
2023-03-02T21:55:27.482Z,35.15
2023-03-02T21:57:55.310Z,41.58
2023-03-02T22:00:26.110Z,41.08
2023-03-02T22:02:54.996Z,39.45
2023-03-02T22:05:22.638Z,39.00
2023-03-02T22:07:50.665Z,39.35
2023-03-02T22:10:27.736Z,38.08
2023-03-02T22:12:58.444Z,36.63
2023-03-02T22:15:28.066Z,49.83
2023-03-02T22:17:56.501Z,36.53
2023-03-02T22:20:24.205Z,35.88
2023-03-02T22:22:54.392Z,37.60
2023-03-02T22:25:22.093Z,41.08
2023-03-02T22:27:49.634Z,39.58
2023-03-02T22:30:20.916Z,37.17
2023-03-02T22:32:50.441Z,38.08
2023-03-02T22:35:24.375Z,38.92
2023-03-02T22:37:55.577Z,38.40
2023-03-02T22:40:29.530Z,40.65
2023-03-02T22:43:07.632Z,35.55
2023-03-02T22:45:36.295Z,38.83
2023-03-02T22:48:11.826Z,35.88
2023-03-02T22:50:39.408Z,36.42
2023-03-02T22:53:22.127Z,38.60
2023-03-02T22:55:49.710Z,38.30
2023-03-02T22:58:29.409Z,41.05
2023-03-02T23:00:58.001Z,38.53
2023-03-02T23:03:36.468Z,39.67
2023-03-02T23:06:20.377Z,38.88
2023-03-02T23:08:47.889Z,35.75
2023-03-02T23:11:18.372Z,38.25
2023-03-02T23:13:46.075Z,39.97
2023-03-02T23:16:19.349Z,37.78
2023-03-02T23:18:49.205Z,38.60
2023-03-02T23:21:20.178Z,39.47
2023-03-02T23:23:48.106Z,40.00
2023-03-02T23:26:15.664Z,41.30
2023-03-02T23:28:43.197Z,42.85
2023-03-02T23:31:10.763Z,39.53
2023-03-02T23:33:38.264Z,36.22
2023-03-02T23:36:08.116Z,41.03
2023-03-02T23:38:35.647Z,41.55
2023-03-02T23:41:03.192Z,40.53
2023-03-02T23:43:30.800Z,44.88
2023-03-02T23:45:58.316Z,42.55
2023-03-02T23:48:26.003Z,41.53
2023-03-02T23:50:53.637Z,38.80
2023-03-02T23:53:22.586Z,41.08
2023-03-02T23:55:52.390Z,39.25
2023-03-02T23:58:19.985Z,40.28
